createdAt,value
2023-04-02T00:01:07.919Z,44.95
2023-04-02T00:06:40.660Z,41.83
2023-04-02T00:11:46.865Z,40.30
2023-04-02T00:16:53.015Z,38.70
2023-04-02T00:21:58.579Z,38.95
2023-04-02T00:27:02.405Z,42.53
2023-04-02T00:32:07.356Z,38.00
2023-04-02T00:37:23.824Z,34.92
2023-04-02T00:42:27.965Z,30.40
2023-04-02T00:47:37.999Z,37.47
2023-04-02T00:52:45.311Z,34.30
2023-04-02T00:57:50.984Z,32.85
2023-04-02T01:03:29.974Z,29.73
2023-04-02T01:08:45.587Z,36.20
2023-04-02T01:13:57.079Z,28.58
2023-04-02T01:19:13.771Z,34.45
2023-04-02T01:24:17.433Z,33.70
2023-04-02T01:29:25.288Z,31.90
2023-04-02T01:34:31.076Z,31.63
2023-04-02T01:39:48.052Z,27.10
2023-04-02T01:44:54.538Z,30.08
2023-04-02T01:50:02.243Z,26.27
2023-04-02T01:55:08.698Z,29.65
2023-04-02T02:00:17.000Z,29.20
2023-04-02T02:05:23.087Z,24.13
2023-04-02T02:10:29.338Z,28.35
2023-04-02T02:15:35.315Z,26.35
2023-04-02T02:20:38.758Z,27.27
2023-04-02T02:25:42.865Z,21.90
2023-04-02T02:30:51.905Z,25.25
2023-04-02T02:36:00.791Z,26.73
2023-04-02T02:41:09.031Z,22.67
2023-04-02T02:46:19.393Z,25.83
2023-04-02T02:51:28.467Z,27.38
2023-04-02T02:56:37.001Z,21.98
2023-04-02T03:01:42.331Z,24.17
2023-04-02T03:06:50.350Z,22.83
2023-04-02T03:11:59.373Z,20.67
2023-04-02T03:17:12.113Z,25.58
2023-04-02T03:22:20.646Z,23.88
2023-04-02T03:27:27.665Z,24.73
2023-04-02T03:32:36.090Z,25.30
2023-04-02T03:37:43.030Z,22.75
2023-04-02T03:42:50.640Z,23.00
2023-04-02T03:48:00.993Z,23.38
2023-04-02T03:53:05.177Z,23.38
2023-04-02T03:58:15.093Z,27.63
2023-04-02T04:03:23.603Z,23.52
2023-04-02T04:08:32.960Z,24.23
2023-04-02T04:13:43.037Z,25.15
2023-04-02T04:18:57.197Z,23.85
2023-04-02T04:24:05.005Z,26.05
2023-04-02T04:29:18.172Z,27.65
2023-04-02T04:34:30.266Z,30.85
2023-04-02T04:39:43.699Z,25.90
2023-04-02T04:44:54.970Z,26.40
2023-04-02T04:50:04.978Z,26.08
2023-04-02T04:55:25.938Z,27.90
2023-04-02T05:00:41.104Z,28.35
2023-04-02T05:05:46.004Z,25.52
2023-04-02T05:10:53.563Z,27.73
2023-04-02T05:16:06.133Z,26.60
2023-04-02T05:21:20.384Z,26.63
2023-04-02T05:26:27.023Z,26.08
2023-04-02T05:31:39.765Z,26.08
2023-04-02T05:36:48.936Z,26.20
2023-04-02T05:42:02.042Z,29.33
2023-04-02T05:47:08.516Z,30.65
2023-04-02T05:52:18.977Z,30.58
2023-04-02T05:57:42.733Z,28.15
2023-04-02T06:02:55.035Z,28.42
2023-04-02T06:08:06.433Z,32.42
2023-04-02T06:13:12.482Z,24.63
2023-04-02T06:18:18.789Z,28.08
2023-04-02T06:23:31.094Z,21.90
2023-04-02T06:28:41.940Z,30.10
2023-04-02T06:33:45.288Z,30.55
2023-04-02T06:38:52.272Z,29.47
2023-04-02T06:43:59.088Z,33.47
2023-04-02T06:49:09.483Z,28.23
2023-04-02T06:54:17.916Z,34.65
2023-04-02T06:59:22.061Z,31.67
2023-04-02T07:04:25.926Z,31.38
2023-04-02T07:09:30.990Z,27.67
2023-04-02T07:14:35.160Z,31.60
2023-04-02T07:19:38.361Z,29.50
2023-04-02T07:24:43.037Z,33.47
2023-04-02T07:29:46.343Z,26.52
2023-04-02T07:34:49.715Z,30.83
2023-04-02T07:39:54.544Z,33.57
2023-04-02T07:44:57.989Z,35.90
2023-04-02T07:50:01.240Z,31.83
2023-04-02T07:55:07.183Z,33.53
2023-04-02T08:00:12.907Z,25.65
2023-04-02T08:05:16.302Z,28.90
2023-04-02T08:10:21.416Z,25.92
2023-04-02T08:15:25.206Z,25.95
2023-04-02T08:20:28.651Z,26.55
2023-04-02T08:25:33.609Z,31.02
2023-04-02T08:30:37.415Z,28.17
2023-04-02T08:35:40.839Z,26.90
2023-04-02T08:40:47.484Z,25.90
2023-04-02T08:46:00.762Z,27.83
2023-04-02T08:51:06.106Z,27.40
2023-04-02T08:56:18.049Z,22.42
2023-04-02T09:01:31.724Z,25.45
2023-04-02T09:06:35.458Z,18.52
2023-04-02T09:11:49.049Z,21.95
2023-04-02T09:16:55.098Z,23.38
2023-04-02T09:22:07.723Z,24.33
2023-04-02T09:27:21.094Z,24.33
2023-04-02T09:32:38.546Z,19.58
2023-04-02T09:37:42.422Z,23.05
2023-04-02T09:42:47.261Z,24.83
2023-04-02T09:47:51.603Z,27.05
2023-04-02T09:52:55.422Z,20.88
2023-04-02T09:58:17.176Z,26.83
2023-04-02T10:03:25.898Z,21.33
2023-04-02T10:08:29.402Z,25.00
2023-04-02T10:13:48.303Z,27.15
2023-04-02T10:18:56.024Z,22.73
2023-04-02T10:23:59.903Z,20.17
2023-04-02T10:29:27.640Z,18.83
2023-04-02T10:34:43.013Z,20.58
2023-04-02T10:39:51.679Z,23.60
2023-04-02T10:45:03.158Z,23.42
2023-04-02T10:50:22.519Z,21.70
2023-04-02T10:55:30.085Z,19.25
2023-04-02T11:00:38.685Z,21.25
2023-04-02T11:05:45.051Z,21.17
2023-04-02T11:10:52.210Z,22.42
2023-04-02T11:15:57.300Z,20.98
2023-04-02T11:21:06.551Z,20.65
2023-04-02T11:26:44.783Z,17.83
2023-04-02T11:31:51.710Z,23.52
2023-04-02T11:37:03.577Z,23.63
2023-04-02T11:42:22.731Z,19.55
2023-04-02T11:47:28.205Z,20.02
2023-04-02T11:52:39.202Z,22.05
2023-04-02T11:58:05.066Z,21.95
2023-04-02T12:03:32.437Z,20.88
2023-04-02T12:08:57.731Z,20.13
2023-04-02T12:14:02.520Z,24.08
2023-04-02T12:19:10.678Z,21.30
2023-04-02T12:24:20.891Z,19.70
2023-04-02T12:29:28.899Z,23.38
2023-04-02T12:34:33.843Z,19.02
2023-04-02T12:39:37.508Z,21.75
2023-04-02T12:44:50.275Z,18.67
2023-04-02T12:49:55.878Z,23.52
2023-04-02T12:55:01.480Z,17.23
2023-04-02T13:00:31.881Z,21.90
2023-04-02T13:05:41.551Z,23.30
2023-04-02T13:10:45.906Z,20.50
2023-04-02T13:16:03.738Z,16.55
2023-04-02T13:21:24.217Z,16.48
2023-04-02T13:26:29.376Z,19.40
2023-04-02T13:31:34.032Z,14.95
2023-04-02T13:36:38.890Z,18.67
2023-04-02T13:41:45.228Z,16.10
2023-04-02T13:46:48.864Z,16.40
2023-04-02T13:51:55.283Z,18.70
2023-04-02T13:56:59.616Z,16.08
2023-04-02T14:02:07.776Z,15.48
2023-04-02T14:07:41.404Z,16.50
2023-04-02T14:13:00.828Z,14.82
2023-04-02T14:18:30.931Z,17.10
2023-04-02T14:23:51.491Z,23.23
2023-04-02T14:29:04.601Z,19.15
2023-04-02T14:34:16.850Z,19.13
2023-04-02T14:39:29.762Z,16.43
2023-04-02T14:49:44.091Z,17.77
2023-04-02T14:54:54.630Z,19.40
2023-04-02T15:00:04.014Z,12.25
2023-04-02T15:05:17.762Z,12.10
2023-04-02T15:10:27.689Z,12.98
2023-04-02T15:15:41.071Z,9.40
2023-04-02T15:20:56.274Z,11.70
2023-04-02T15:26:12.818Z,10.98
2023-04-02T15:31:16.612Z,12.38
2023-04-02T15:36:40.188Z,14.07
2023-04-02T15:41:58.057Z,13.48
2023-04-02T15:47:10.451Z,18.92
2023-04-02T15:52:18.835Z,16.17
2023-04-02T15:57:41.802Z,16.58
2023-04-02T16:03:02.667Z,16.95
2023-04-02T16:08:29.224Z,18.42
2023-04-02T16:13:35.819Z,16.70
2023-04-02T16:18:48.549Z,19.35
2023-04-02T16:23:52.184Z,18.45
2023-04-02T16:29:09.551Z,17.27
2023-04-02T16:34:20.097Z,15.00
2023-04-02T16:39:34.685Z,16.83
2023-04-02T16:44:53.420Z,21.40
2023-04-02T16:50:01.110Z,17.75
2023-04-02T16:55:23.701Z,20.40
2023-04-02T17:00:37.867Z,17.90
2023-04-02T17:05:52.674Z,14.73
2023-04-02T17:11:02.206Z,15.45
2023-04-02T17:16:18.511Z,11.88
2023-04-02T17:21:32.520Z,14.07
2023-04-02T17:26:39.153Z,18.08
2023-04-02T17:31:46.847Z,22.08
2023-04-02T17:36:58.713Z,16.55
2023-04-02T17:42:11.492Z,32.10
2023-04-02T17:47:23.968Z,19.67
2023-04-02T17:52:36.048Z,20.80
2023-04-02T17:57:55.427Z,18.63
2023-04-02T18:03:21.707Z,16.50
2023-04-02T18:08:33.652Z,13.50
2023-04-02T18:13:40.896Z,16.47
2023-04-02T18:19:10.178Z,18.48
2023-04-02T18:24:42.763Z,14.77
2023-04-02T18:29:57.232Z,17.73
2023-04-02T18:35:10.270Z,17.08
2023-04-02T18:40:32.444Z,15.20
2023-04-02T18:45:44.506Z,14.98
2023-04-02T18:50:50.206Z,18.08
2023-04-02T18:55:57.904Z,16.25
2023-04-02T19:01:03.035Z,15.32
2023-04-02T19:06:13.780Z,18.35
2023-04-02T19:11:20.588Z,16.20
2023-04-02T19:16:51.273Z,16.45
2023-04-02T19:22:14.045Z,16.27
2023-04-02T19:27:27.611Z,16.63
2023-04-02T19:32:40.374Z,17.92
2023-04-02T19:37:55.831Z,18.92
2023-04-02T19:42:59.461Z,18.42
2023-04-02T19:48:10.963Z,20.35
2023-04-02T19:53:16.791Z,18.05
2023-04-02T19:58:27.308Z,14.95
2023-04-02T20:03:32.564Z,14.32
2023-04-02T20:08:38.594Z,17.27
2023-04-02T20:13:43.116Z,14.57
2023-04-02T20:18:47.947Z,18.60
2023-04-02T20:23:55.749Z,16.42
2023-04-02T20:28:59.471Z,18.40
2023-04-02T20:34:05.300Z,18.52
2023-04-02T20:39:12.118Z,23.80
2023-04-02T20:44:15.548Z,13.50
2023-04-02T20:49:18.811Z,20.13
2023-04-02T20:54:23.617Z,16.15
2023-04-02T20:59:27.332Z,19.98
2023-04-02T21:04:30.575Z,18.98
2023-04-02T21:09:36.068Z,14.77
2023-04-02T21:14:40.171Z,19.10
2023-04-02T21:19:43.471Z,13.55
2023-04-02T21:24:48.187Z,15.15
2023-04-02T21:29:51.636Z,15.32
2023-04-02T21:34:55.500Z,15.07
2023-04-02T21:40:00.033Z,15.68
2023-04-02T21:45:03.909Z,16.15
2023-04-02T21:50:08.704Z,15.07
2023-04-02T21:55:13.497Z,16.10
2023-04-02T22:00:17.791Z,14.70
2023-04-02T22:05:21.039Z,14.52
2023-04-02T22:10:26.098Z,15.98
2023-04-02T22:15:29.506Z,16.60
2023-04-02T22:20:33.028Z,15.82
2023-04-02T22:25:38.231Z,15.65
2023-04-02T22:30:41.692Z,17.92
2023-04-02T22:35:45.057Z,16.10
2023-04-02T22:40:49.717Z,16.92
2023-04-02T22:45:52.910Z,15.82
2023-04-02T22:50:56.136Z,15.98
2023-04-02T22:56:06.694Z,16.63
2023-04-02T23:01:13.548Z,17.60
2023-04-02T23:06:19.218Z,14.70
2023-04-02T23:11:26.072Z,15.95
2023-04-02T23:16:30.804Z,16.15
2023-04-02T23:21:34.143Z,17.50
2023-04-02T23:26:38.758Z,19.70
2023-04-02T23:31:42.035Z,14.50
2023-04-02T23:36:45.405Z,18.77
2023-04-02T23:41:50.716Z,14.45
2023-04-02T23:46:54.407Z,14.55
2023-04-02T23:51:57.785Z,18.00
2023-04-02T23:57:02.688Z,21.55
